< < Back
Terminal Aerodrome Forecast


Current Version              Previous Versions:   1  2  3  4  5  6  7  8  9  

Terminal Aerodrome Forecast

319
FTUS44 KMOB 292200 AAA
TAFMOB
TAF AMD
KMOB 292253Z 2923/3018 31014G22KT P6SM VCTS SCT040CB SCT080 SCT200
     FM300000 35004KT P6SM FEW250
     FM301200 01006KT P6SM SKC=



Latest METAR

845
SAUS80 KWBC 301200 CCA
MTRMOB
METAR KMOB 301156Z 36007KT 10SM FEW070 FEW200 12/11 A3008 RMK AO2 SLP185
70001 T01170106 10161 20117 53007


USA.gov is the U.S. government's official web portal to all federal, state and local government web resources and services.